Time;durP1;ratioP1;P1;durP2;ratioP2;P2;SDS_P1;SDS_P2;PMS_P1;PMS_P2;Temp;Humidity;BMP_temperature;BMP_pressure;BME280_temperature;BME280_humidity;BME280_pressure;Samples;Min_cycle;Max_cycle;Signal;HPM_P1;HPM_P2
2023/05/13 00:00:37;;;;;;;0.20;0.20;;;;;;;20.25;55.33;101516.44;5052410;28;20452;-44
2023/05/13 00:03:03;;;;;;;0.30;0.30;;;;;;;20.25;55.39;101511.78;5053482;28;20164;-43
2023/05/13 00:05:29;;;;;;;0.20;0.20;;;;;;;20.25;55.53;101522.84;5052832;28;20372;-44
2023/05/13 00:07:54;;;;;;;0.20;0.20;;;;;;;20.25;55.66;101520.06;5052294;28;20059;-43
2023/05/13 00:10:20;;;;;;;0.20;0.20;;;;;;;20.25;55.50;101516.44;5052474;28;20312;-43
2023/05/13 00:12:46;;;;;;;0.20;0.20;;;;;;;20.25;55.30;101514.53;5053254;28;20045;-44
2023/05/13 00:15:12;;;;;;;0.20;0.20;;;;;;;20.26;55.29;101509.84;5051624;28;20109;-44
2023/05/13 00:17:38;;;;;;;0.20;0.20;;;;;;;20.26;54.34;101509.84;5050427;28;20075;-43
2023/05/13 00:20:05;;;;;;;0.20;0.20;;;;;;;20.25;54.34;101509.00;5051992;28;20133;-45
2023/05/13 00:22:31;;;;;;;0.20;0.20;;;;;;;20.26;54.76;101505.13;5052150;28;20559;-45
2023/05/13 00:24:56;;;;;;;0.20;0.20;;;;;;;20.27;54.87;101512.31;5051679;28;20447;-43
2023/05/13 00:27:22;;;;;;;0.20;0.20;;;;;;;20.27;54.77;101514.25;5052020;28;20539;-44
2023/05/13 00:29:48;;;;;;;0.20;0.20;;;;;;;20.27;54.33;101512.31;5051941;28;20040;-43
2023/05/13 00:32:14;;;;;;;0.20;0.20;;;;;;;20.27;54.80;101508.72;5052489;28;20053;-43
2023/05/13 00:34:40;;;;;;;0.20;0.20;;;;;;;20.26;54.61;101512.59;5053274;28;20170;-44
2023/05/13 00:37:05;;;;;;;0.20;0.20;;;;;;;20.27;54.13;101505.97;5051981;28;20068;-45
2023/05/13 00:39:31;;;;;;;0.20;0.20;;;;;;;20.27;54.82;101504.03;5051782;28;20417;-43
2023/05/13 00:41:58;;;;;;;0.20;0.20;;;;;;;20.26;53.96;101515.38;5051806;28;20051;-43
2023/05/13 00:44:23;;;;;;;0.20;0.20;;;;;;;20.26;53.91;101513.44;5053177;28;20276;-43
2023/05/13 00:46:49;;;;;;;0.22;0.22;;;;;;;20.26;53.85;101518.97;5051587;28;20041;-44
2023/05/13 00:49:15;;;;;;;0.20;0.20;;;;;;;20.26;53.65;101516.19;5051943;28;20052;-43
2023/05/13 00:51:40;;;;;;;0.20;0.20;;;;;;;20.27;54.25;101512.31;5062691;28;20055;-43
2023/05/13 00:54:06;;;;;;;0.20;0.20;;;;;;;20.27;53.65;101515.09;5072901;28;20046;-42
2023/05/13 00:56:32;;;;;;;0.47;0.30;;;;;;;20.26;54.46;101524.50;5071611;28;20058;-43
2023/05/13 00:58:58;;;;;;;0.20;0.20;;;;;;;20.26;53.25;101527.25;5074014;28;20515;-44
2023/05/13 01:01:39;;;;;;;0.20;0.20;;;;;;;20.25;54.66;101517.31;5057483;28;20044;-43
2023/05/13 01:04:28;;;;;;;0.20;0.20;;;;;;;20.27;54.76;101517.84;5055899;28;20536;-43
2023/05/13 01:07:18;;;;;;;0.20;0.20;;;;;;;20.26;53.34;101518.97;5053585;28;20436;-43
2023/05/13 01:10:05;;;;;;;0.20;0.20;;;;;;;20.26;54.69;101516.19;5053793;28;20095;-43
2023/05/13 01:12:32;;;;;;;0.20;0.20;;;;;;;20.25;53.53;101509.00;5055233;28;20071;-43
2023/05/13 01:15:20;;;;;;;0.20;0.20;;;;;;;20.26;54.03;101510.66;5055858;28;20325;-44
2023/05/13 01:18:09;;;;;;;0.20;0.20;;;;;;;20.26;54.69;101509.84;5053970;28;20130;-43
2023/05/13 01:20:37;;;;;;;0.20;0.20;;;;;;;20.24;53.95;101512.84;5045584;28;20090;-43
2023/05/13 01:23:03;;;;;;;0.20;0.20;;;;;;;20.25;53.25;101513.69;5054066;28;20474;-43
2023/05/13 01:25:28;;;;;;;0.20;0.20;;;;;;;20.25;53.56;101510.91;5055375;28;20048;-43
2023/05/13 01:27:54;;;;;;;0.20;0.20;;;;;;;20.26;53.63;101512.59;5054744;28;20047;-43
2023/05/13 01:30:20;;;;;;;0.20;0.20;;;;;;;20.27;54.31;101505.97;5054471;28;20048;-45
2023/05/13 01:32:47;;;;;;;0.20;0.20;;;;;;;20.26;54.27;101509.84;5054524;28;20155;-43
2023/05/13 01:35:13;;;;;;;0.50;0.50;;;;;;;20.25;53.31;101514.53;5055007;28;20095;-43
2023/05/13 01:37:40;;;;;;;0.20;0.20;;;;;;;20.24;53.15;101521.16;5054514;28;20481;-43
2023/05/13 01:40:07;;;;;;;0.20;0.20;;;;;;;20.25;53.77;101520.06;5049145;28;20075;-44
2023/05/13 01:42:52;;;;;;;0.20;0.20;;;;;;;20.25;53.57;101516.44;5038631;28;20045;-43
2023/05/13 01:45:18;;;;;;;0.20;0.20;;;;;;;20.25;53.25;101519.22;5054433;28;20067;-45
2023/05/13 01:47:43;;;;;;;0.35;0.30;;;;;;;20.25;54.63;101517.31;5053108;28;20792;-43
2023/05/13 01:50:09;;;;;;;0.20;0.20;;;;;;;20.26;53.69;101515.38;5054586;28;20488;-43
2023/05/13 01:52:35;;;;;;;0.20;0.20;;;;;;;20.25;54.16;101520.06;5055643;28;20647;-44
2023/05/13 01:55:01;;;;;;;0.20;0.20;;;;;;;20.25;53.67;101521.97;5054437;28;20113;-42
2023/05/13 01:57:26;;;;;;;0.20;0.20;;;;;;;20.26;53.89;101518.13;5053979;28;20040;-43
2023/05/13 01:59:52;;;;;;;0.20;0.20;;;;;;;20.25;53.27;101524.75;5053885;28;20308;-42
2023/05/13 02:02:18;;;;;;;0.20;0.20;;;;;;;20.25;54.33;101525.59;5053833;28;20049;-44
2023/05/13 02:04:43;;;;;;;0.20;0.20;;;;;;;20.25;53.69;101517.31;5054016;28;20052;-43
2023/05/13 02:07:09;;;;;;;0.20;0.20;;;;;;;20.25;53.95;101524.75;5053751;28;20040;-43
2023/05/13 02:09:35;;;;;;;0.20;0.20;;;;;;;20.25;53.58;101524.75;5052914;28;20059;-43
2023/05/13 02:12:01;;;;;;;0.20;0.20;;;;;;;20.24;53.30;101521.16;5053647;28;20550;-44
2023/05/13 02:14:26;;;;;;;0.38;0.38;;;;;;;20.25;54.17;101525.59;5054120;28;20045;-44
2023/05/13 02:16:52;;;;;;;0.20;0.20;;;;;;;20.25;53.37;101525.59;5053922;28;20384;-43
2023/05/13 02:19:18;;;;;;;0.30;0.30;;;;;;;20.25;53.73;101517.31;5053839;28;20453;-44
2023/05/13 02:21:44;;;;;;;0.20;0.20;;;;;;;20.26;53.77;101523.66;5053118;28;20182;-44
2023/05/13 02:24:10;;;;;;;0.30;0.30;;;;;;;20.26;54.18;101523.66;5054270;28;20048;-44
2023/05/13 02:26:35;;;;;;;0.20;0.20;;;;;;;20.24;53.09;101518.38;5053561;28;20066;-42
2023/05/13 02:29:01;;;;;;;0.20;0.20;;;;;;;20.25;54.61;101517.31;5053776;28;20045;-44
2023/05/13 02:31:27;;;;;;;0.20;0.20;;;;;;;20.25;53.20;101517.31;5039541;28;20057;-42
2023/05/13 02:33:53;;;;;;;0.20;0.20;;;;;;;20.25;53.61;101519.22;5054051;28;20090;-44
2023/05/13 02:36:18;;;;;;;0.20;0.20;;;;;;;20.25;54.34;101521.97;5053030;28;20048;-43
2023/05/13 02:38:44;;;;;;;0.20;0.20;;;;;;;20.25;53.51;101519.22;5053369;28;20076;-44
2023/05/13 02:41:10;;;;;;;0.40;0.40;;;;;;;20.24;53.40;101518.38;5053183;28;20040;-42
2023/05/13 02:43:35;;;;;;;0.20;0.20;;;;;;;20.24;53.52;101512.84;5064282;28;20102;-43
2023/05/13 02:46:02;;;;;;;0.20;0.20;;;;;;;20.24;53.36;101525.84;5073284;28;20485;-44
2023/05/13 02:48:28;;;;;;;0.20;0.20;;;;;;;20.23;54.14;101516.72;5070983;28;20055;-43
2023/05/13 02:50:54;;;;;;;0.20;0.20;;;;;;;20.24;53.26;101521.16;5037325;28;20523;-43
2023/05/13 02:53:19;;;;;;;0.20;0.20;;;;;;;20.24;53.01;101518.38;5035159;28;20056;-43
2023/05/13 02:55:45;;;;;;;0.20;0.20;;;;;;;20.25;53.33;101513.69;5053341;28;20044;-42
2023/05/13 02:58:11;;;;;;;0.30;0.30;;;;;;;20.24;53.33;101521.16;5052766;28;20048;-42
2023/05/13 03:00:37;;;;;;;0.20;0.20;;;;;;;20.24;53.19;101517.56;5052712;28;20487;-43
2023/05/13 03:03:03;;;;;;;0.40;0.40;;;;;;;20.24;53.43;101518.38;5034889;28;20140;-42
2023/05/13 03:05:29;;;;;;;0.20;0.20;;;;;;;20.23;53.78;101508.44;5052776;28;20649;-43
2023/05/13 03:07:56;;;;;;;0.20;0.20;;;;;;;20.23;53.53;101511.19;5052442;28;20048;-42
2023/05/13 03:10:22;;;;;;;0.30;0.30;;;;;;;20.22;53.15;101509.56;5052728;28;20479;-45
2023/05/13 03:12:48;;;;;;;0.20;0.20;;;;;;;20.24;53.29;101512.03;5053268;28;20063;-42
2023/05/13 03:15:15;;;;;;;0.20;0.20;;;;;;;20.24;53.53;101509.25;5053051;28;20059;-43
2023/05/13 03:17:43;;;;;;;0.20;0.20;;;;;;;20.24;53.32;101512.03;5051320;28;20052;-43
2023/05/13 03:20:09;;;;;;;0.20;0.20;;;;;;;20.24;53.99;101512.03;5052924;28;20062;-44
2023/05/13 03:22:37;;;;;;;0.20;0.20;;;;;;;20.24;53.61;101509.25;5028649;28;20078;-45
2023/05/13 03:25:04;;;;;;;0.20;0.20;;;;;;;20.24;53.25;101506.50;5035932;28;20067;-43
2023/05/13 03:27:30;;;;;;;0.20;0.20;;;;;;;20.24;52.99;101509.25;5052747;28;20409;-43
2023/05/13 03:29:56;;;;;;;0.20;0.20;;;;;;;20.23;53.26;101510.38;5052648;28;20053;-42
2023/05/13 03:32:24;;;;;;;0.20;0.20;;;;;;;20.24;53.78;101512.03;5053181;28;20052;-44
2023/05/13 03:34:50;;;;;;;0.40;0.40;;;;;;;20.23;53.29;101511.19;5053587;28;20110;-44
2023/05/13 03:37:16;;;;;;;0.20;0.20;;;;;;;20.23;54.11;101507.59;5034331;28;20117;-44
2023/05/13 03:39:41;;;;;;;0.20;0.20;;;;;;;20.24;53.17;101520.31;5052565;28;20415;-45
2023/05/13 03:42:07;;;;;;;0.20;0.20;;;;;;;20.23;53.92;101518.66;5052989;28;20048;-44
2023/05/13 03:44:34;;;;;;;0.20;0.20;;;;;;;20.24;53.63;101512.03;5052289;28;20054;-43
2023/05/13 03:46:59;;;;;;;0.20;0.20;;;;;;;20.23;53.67;101519.50;5052007;28;20519;-42
2023/05/13 03:49:25;;;;;;;0.20;0.20;;;;;;;20.22;53.28;101514.25;5051712;28;20321;-45
2023/05/13 03:51:51;;;;;;;0.20;0.20;;;;;;;20.23;53.26;101518.66;5051629;28;20048;-43
2023/05/13 03:54:16;;;;;;;0.25;0.25;;;;;;;20.24;53.36;101521.16;5052865;28;20040;-43
2023/05/13 03:56:42;;;;;;;0.20;0.20;;;;;;;20.23;53.34;101518.66;5051857;28;20105;-43
2023/05/13 03:59:08;;;;;;;0.20;0.20;;;;;;;20.22;53.13;101517.03;5052541;28;20047;-43
2023/05/13 04:01:34;;;;;;;0.20;0.20;;;;;;;20.22;53.06;101523.38;5051899;28;20109;-43
2023/05/13 04:04:00;;;;;;;0.20;0.20;;;;;;;20.22;53.33;101519.78;5051578;28;20047;-43
2023/05/13 04:06:26;;;;;;;0.20;0.20;;;;;;;20.23;53.34;101530.56;5052008;28;20321;-43
2023/05/13 04:08:51;;;;;;;0.20;0.20;;;;;;;20.23;53.32;101536.09;5052133;28;20048;-43
2023/05/13 04:11:17;;;;;;;0.20;0.20;;;;;;;20.23;53.36;101524.19;5051676;28;20560;-43
2023/05/13 04:13:44;;;;;;;0.30;0.30;;;;;;;20.22;53.66;101525.31;5052616;28;20204;-43
2023/05/13 04:16:10;;;;;;;0.20;0.20;;;;;;;20.23;53.11;101526.97;5052065;28;20527;-45
2023/05/13 04:18:36;;;;;;;0.20;0.20;;;;;;;20.23;54.03;101536.09;5051886;28;20048;-44
2023/05/13 04:21:06;;;;;;;0.20;0.20;;;;;;;20.22;53.58;101533.63;5051413;28;20333;-44
2023/05/13 04:23:31;;;;;;;0.20;0.20;;;;;;;20.23;54.36;101538.03;5052611;28;20090;-43
2023/05/13 04:25:57;;;;;;;0.20;0.20;;;;;;;20.21;53.26;101538.31;5052023;28;20056;-43
2023/05/13 04:28:23;;;;;;;0.20;0.20;;;;;;;20.22;53.36;101531.69;5052109;28;20477;-43
2023/05/13 04:30:48;;;;;;;0.22;0.22;;;;;;;20.23;53.92;101544.38;5051484;28;20243;-43
2023/05/13 04:33:15;;;;;;;0.40;0.40;;;;;;;20.22;53.77;101539.16;5055085;28;20405;-43
2023/05/13 04:35:41;;;;;;;0.20;0.20;;;;;;;20.21;53.30;101531.97;5055968;28;20068;-44
2023/05/13 04:38:07;;;;;;;0.20;0.20;;;;;;;20.22;52.81;101537.22;5055927;28;20462;-43
2023/05/13 04:40:32;;;;;;;0.25;0.25;;;;;;;20.23;53.23;101541.63;5055284;28;20048;-43
2023/05/13 04:42:58;;;;;;;0.40;0.40;;;;;;;20.22;53.44;101536.38;5055859;28;20051;-44
2023/05/13 04:45:24;;;;;;;0.20;0.20;;;;;;;20.22;53.88;101542.75;5056023;28;20444;-44
2023/05/13 04:47:49;;;;;;;0.20;0.20;;;;;;;20.23;53.39;101538.03;5055404;28;20040;-43
2023/05/13 04:50:15;;;;;;;0.30;0.30;;;;;;;20.21;53.38;101540.25;5055077;28;20429;-43
2023/05/13 04:52:41;;;;;;;0.20;0.20;;;;;;;20.22;53.17;101544.69;5054578;28;20105;-43
2023/05/13 04:55:09;;;;;;;0.20;0.20;;;;;;;20.21;53.11;101552.16;5055638;28;20503;-43
2023/05/13 04:57:34;;;;;;;0.20;0.20;;;;;;;20.21;54.15;101554.91;5055272;28;20068;-43
2023/05/13 05:00:00;;;;;;;0.20;0.20;;;;;;;20.23;54.17;101546.31;5055104;28;20041;-43
2023/05/13 05:02:28;;;;;;;0.20;0.20;;;;;;;20.22;53.56;101552.97;5055280;28;20048;-42
2023/05/13 05:04:57;;;;;;;0.30;0.30;;;;;;;20.22;53.47;101558.50;5056560;28;20048;-43
2023/05/13 05:07:23;;;;;;;0.20;0.20;;;;;;;20.21;53.21;101557.69;5054777;28;20048;-44
2023/05/13 05:09:48;;;;;;;0.20;0.20;;;;;;;20.22;53.97;101556.56;5054845;28;20059;-44
2023/05/13 05:12:14;;;;;;;0.20;0.20;;;;;;;20.21;53.45;101562.38;5055067;28;20044;-42
2023/05/13 05:14:40;;;;;;;0.20;0.20;;;;;;;20.23;54.16;101560.16;5054239;28;20049;-45
2023/05/13 05:17:06;;;;;;;0.20;0.20;;;;;;;20.21;53.45;101565.97;5053650;28;20299;-43
2023/05/13 05:19:32;;;;;;;0.20;0.20;;;;;;;20.21;53.45;101560.44;5053313;28;20416;-43
2023/05/13 05:21:57;;;;;;;0.20;0.20;;;;;;;20.22;54.19;101567.63;5054401;28;20041;-43
2023/05/13 05:24:23;;;;;;;0.20;0.20;;;;;;;20.21;53.94;101559.63;5055537;28;20056;-45
2023/05/13 05:26:49;;;;;;;0.20;0.20;;;;;;;20.21;53.86;101560.44;5055021;28;20049;-42
2023/05/13 05:29:14;;;;;;;0.20;0.20;;;;;;;20.21;54.17;101562.38;5055276;28;20036;-44
2023/05/13 05:31:40;;;;;;;0.20;0.20;;;;;;;20.22;53.28;101569.56;5054170;28;20288;-43
2023/05/13 05:34:06;;;;;;;0.20;0.20;;;;;;;20.21;53.22;101565.16;5055388;28;20496;-44
2023/05/13 05:36:32;;;;;;;0.20;0.20;;;;;;;20.21;54.11;101567.91;5054813;28;20151;-43
2023/05/13 05:38:57;;;;;;;0.20;0.20;;;;;;;20.22;53.53;101564.03;5054984;28;20095;-44
2023/05/13 05:41:23;;;;;;;0.20;0.20;;;;;;;20.21;53.88;101570.69;5054503;28;20052;-43
2023/05/13 05:43:49;;;;;;;0.20;0.20;;;;;;;20.21;53.55;101571.50;5054117;28;20071;-44
2023/05/13 05:46:15;;;;;;;0.20;0.20;;;;;;;20.22;53.43;101566.81;5054685;28;20248;-43
2023/05/13 05:48:41;;;;;;;0.20;0.20;;;;;;;20.21;53.74;101565.16;5055137;28;20636;-44
2023/05/13 05:51:06;;;;;;;0.20;0.20;;;;;;;20.22;54.32;101566.81;5059123;28;20540;-43
2023/05/13 05:53:36;;;;;;;0.20;0.20;;;;;;;20.20;53.29;101564.28;5054782;28;20797;-44
2023/05/13 05:56:02;;;;;;;0.20;0.20;;;;;;;20.21;53.48;101567.91;5053579;28;20075;-42
2023/05/13 05:58:28;;;;;;;0.20;0.20;;;;;;;20.20;53.88;101564.28;5054467;28;20398;-43
2023/05/13 06:00:55;;;;;;;0.20;0.20;;;;;;;20.21;53.80;101565.16;5053946;28;20585;-47
2023/05/13 06:03:21;;;;;;;0.20;0.20;;;;;;;20.20;53.62;101572.59;5036724;28;20045;-42
2023/05/13 06:05:47;;;;;;;0.20;0.20;;;;;;;20.20;54.35;101566.22;5054088;28;20473;-44
2023/05/13 06:08:13;;;;;;;0.20;0.20;;;;;;;20.21;53.83;101570.69;5054153;28;20044;-44
2023/05/13 06:10:38;;;;;;;0.20;0.20;;;;;;;20.19;53.26;101568.16;5053692;28;20428;-44
2023/05/13 06:13:04;;;;;;;0.20;0.20;;;;;;;20.20;53.34;101575.34;5053902;28;20074;-42
2023/05/13 06:15:30;;;;;;;0.20;0.20;;;;;;;20.20;54.16;101575.34;5053980;28;20052;-44
2023/05/13 06:17:55;;;;;;;0.20;0.20;;;;;;;20.21;54.16;101576.22;5054109;28;20467;-44
2023/05/13 06:20:21;;;;;;;0.20;0.20;;;;;;;20.22;54.22;101575.09;5053935;28;20532;-43
2023/05/13 06:22:48;;;;;;;0.20;0.20;;;;;;;20.21;53.95;101573.44;5053646;28;20456;-43
2023/05/13 06:25:13;;;;;;;0.20;0.20;;;;;;;20.20;53.94;101578.13;5052495;28;20540;-43
2023/05/13 06:27:39;;;;;;;0.20;0.20;;;;;;;20.20;53.20;101582.81;5053480;28;20397;-45
2023/05/13 06:30:05;;;;;;;0.20;0.20;;;;;;;20.19;52.96;101608.81;5053341;28;20181;-43
2023/05/13 06:32:31;;;;;;;0.20;0.20;;;;;;;20.21;53.91;101609.41;5053181;28;20422;-43
2023/05/13 06:34:57;;;;;;;0.20;0.20;;;;;;;20.21;54.22;101599.16;5053834;28;20071;-44
2023/05/13 06:37:23;;;;;;;0.20;0.20;;;;;;;20.22;53.80;101591.69;5053107;28;20048;-43
2023/05/13 06:39:48;;;;;;;0.20;0.20;;;;;;;20.20;53.18;101586.41;5053702;28;20056;-43
2023/05/13 06:42:14;;;;;;;0.20;0.20;;;;;;;20.21;53.63;101595.56;5053181;28;20499;-43
2023/05/13 06:44:40;;;;;;;0.20;0.20;;;;;;;20.20;53.76;101603.00;5054036;28;20045;-43
2023/05/13 06:47:07;;;;;;;0.20;0.20;;;;;;;20.19;53.05;101606.88;5053035;28;20542;-43
2023/05/13 06:49:33;;;;;;;0.20;0.20;;;;;;;20.20;53.71;101596.66;5044713;28;20548;-43
2023/05/13 06:51:58;;;;;;;0.20;0.20;;;;;;;20.20;53.08;101600.25;5053423;28;20634;-44
2023/05/13 06:54:25;;;;;;;0.20;0.20;;;;;;;20.20;53.99;101603.00;5053701;28;20325;-42
2023/05/13 06:56:52;;;;;;;0.20;0.20;;;;;;;20.20;54.07;101596.66;5052370;28;20492;-43
2023/05/13 06:59:19;;;;;;;0.20;0.20;;;;;;;20.20;53.78;101597.47;5053995;28;20338;-44
2023/05/13 07:01:44;;;;;;;0.20;0.20;;;;;;;20.19;53.54;101595.00;5053381;28;20094;-43
2023/05/13 07:04:10;;;;;;;0.20;0.20;;;;;;;20.19;53.04;101600.53;5053371;28;20486;-43
2023/05/13 07:06:36;;;;;;;0.20;0.20;;;;;;;20.19;53.95;101601.34;5053049;28;20111;-42
2023/05/13 07:09:02;;;;;;;0.20;0.20;;;;;;;20.20;54.17;101608.53;5053612;28;20079;-43
2023/05/13 07:11:33;;;;;;;0.20;0.20;;;;;;;20.19;53.06;101614.34;5021430;28;20098;-43
2023/05/13 07:13:58;;;;;;;0.20;0.20;;;;;;;20.20;54.13;101616.00;5053380;28;20056;-43
2023/05/13 07:16:24;;;;;;;0.20;0.20;;;;;;;20.19;53.24;101604.13;5053062;28;20317;-45
2023/05/13 07:18:50;;;;;;;0.20;0.20;;;;;;;20.20;54.06;101597.47;5053148;28;20055;-43
2023/05/13 07:21:16;;;;;;;0.20;0.20;;;;;;;20.20;53.97;101604.94;5052846;28;20045;-44
2023/05/13 07:23:41;;;;;;;0.20;0.20;;;;;;;20.20;54.14;101599.41;5052816;28;20410;-44
2023/05/13 07:26:09;;;;;;;0.20;0.20;;;;;;;20.19;54.36;101597.75;5052708;28;20044;-43
2023/05/13 07:28:35;;;;;;;0.20;0.20;;;;;;;20.19;54.16;101601.34;5052721;28;20044;-43
2023/05/13 07:31:03;;;;;;;0.20;0.20;;;;;;;20.19;53.67;101595.81;5052790;28;20059;-43
2023/05/13 07:33:29;;;;;;;0.20;0.20;;;;;;;20.19;53.61;101606.88;5034879;28;20048;-42
2023/05/13 07:35:54;;;;;;;0.20;0.20;;;;;;;20.20;54.14;101607.72;5052492;28;20527;-44
2023/05/13 07:38:21;;;;;;;0.20;0.20;;;;;;;20.19;54.12;101609.66;5051791;28;20135;-44
2023/05/13 07:40:47;;;;;;;0.30;0.30;;;;;;;20.19;53.92;101604.13;5052644;28;20153;-42
2023/05/13 07:43:13;;;;;;;0.20;0.20;;;;;;;20.19;53.86;101608.81;5052353;28;20471;-45
2023/05/13 07:45:39;;;;;;;0.20;0.20;;;;;;;20.20;53.72;101604.94;5052662;28;20045;-42
2023/05/13 07:48:04;;;;;;;0.20;0.20;;;;;;;20.20;53.86;101604.94;5059497;28;20150;-43
2023/05/13 07:50:31;;;;;;;0.20;0.20;;;;;;;20.19;53.21;101604.13;5061778;28;20477;-43
2023/05/13 07:52:56;;;;;;;0.20;0.20;;;;;;;20.19;53.73;101603.28;5051020;28;20124;-45
2023/05/13 07:55:22;;;;;;;0.20;0.20;;;;;;;20.19;53.98;101609.66;5052787;28;20049;-43
2023/05/13 07:57:48;;;;;;;0.20;0.20;;;;;;;20.20;53.95;101602.19;5051895;28;20110;-42
2023/05/13 08:00:14;;;;;;;0.20;0.20;;;;;;;20.20;54.09;101613.25;5045333;28;20330;-43
2023/05/13 08:02:42;;;;;;;0.20;0.20;;;;;;;20.19;54.03;101606.88;5052259;28;20982;-42
2023/05/13 08:05:09;;;;;;;0.20;0.20;;;;;;;20.19;54.18;101612.41;5034279;28;20243;-44
2023/05/13 08:07:35;;;;;;;0.20;0.20;;;;;;;20.20;53.96;101608.53;5049976;28;20139;-42
2023/05/13 08:10:01;;;;;;;0.20;0.20;;;;;;;20.19;53.73;101606.88;5047428;28;20049;-43
2023/05/13 08:12:26;;;;;;;0.30;0.30;;;;;;;20.18;53.38;101602.47;5051802;28;20203;-42
2023/05/13 08:14:52;;;;;;;0.20;0.20;;;;;;;20.20;53.86;101607.72;5051968;28;20056;-42
2023/05/13 08:17:18;;;;;;;0.20;0.20;;;;;;;20.19;53.93;101603.28;5051347;28;20052;-44
2023/05/13 08:19:44;;;;;;;0.20;0.20;;;;;;;20.18;53.33;101604.41;5051500;28;20060;-42
2023/05/13 08:22:10;;;;;;;0.20;0.20;;;;;;;20.18;53.28;101602.47;5033758;28;20076;-44
2023/05/13 08:24:36;;;;;;;0.20;0.20;;;;;;;20.19;53.43;101603.28;5052100;28;20520;-42
2023/05/13 08:27:02;;;;;;;0.32;0.32;;;;;;;20.18;53.28;101608.00;5050085;28;20044;-42
2023/05/13 08:29:28;;;;;;;0.20;0.20;;;;;;;20.19;54.05;101592.22;5051327;28;20482;-43
2023/05/13 08:31:54;;;;;;;0.20;0.20;;;;;;;20.18;53.86;101594.16;5051380;28;20052;-42
2023/05/13 08:34:20;;;;;;;0.20;0.20;;;;;;;20.18;53.72;101591.41;5051820;28;20052;-44
2023/05/13 08:36:45;;;;;;;0.20;0.20;;;;;;;20.18;53.83;101591.41;5049948;28;20053;-42
2023/05/13 08:39:12;;;;;;;0.20;0.20;;;;;;;20.18;53.83;101598.88;5051805;28;20045;-43
2023/05/13 08:41:37;;;;;;;0.20;0.20;;;;;;;20.19;53.04;101592.22;5051312;28;20838;-43
2023/05/13 08:44:04;;;;;;;0.20;0.20;;;;;;;20.19;53.55;101595.00;5051751;28;20792;-43
2023/05/13 08:46:33;;;;;;;0.20;0.20;;;;;;;20.19;53.90;101598.59;5049224;28;20385;-42
2023/05/13 08:49:00;;;;;;;0.20;0.20;;;;;;;20.19;53.65;101615.19;5034146;28;20612;-44
2023/05/13 08:51:26;;;;;;;0.20;0.20;;;;;;;20.18;53.74;101602.47;5051706;28;20076;-42
2023/05/13 08:53:52;;;;;;;0.20;0.20;;;;;;;20.17;54.04;101605.50;5043273;28;20045;-42
2023/05/13 08:56:18;;;;;;;0.20;0.20;;;;;;;20.16;53.22;101604.66;5050454;28;20048;-44
2023/05/13 08:58:43;;;;;;;0.20;0.20;;;;;;;20.18;53.96;101607.16;5052053;28;20136;-44
2023/05/13 09:01:09;;;;;;;0.20;0.20;;;;;;;20.18;52.96;101612.69;5051022;28;20044;-42
2023/05/13 09:03:46;;;;;;;0.20;0.20;;;;;;;20.17;53.13;101614.63;5052378;28;20607;-43
2023/05/13 09:06:11;;;;;;;0.20;0.20;;;;;;;20.17;53.36;101611.03;5051820;28;20087;-43
2023/05/13 09:08:37;;;;;;;0.20;0.20;;;;;;;20.18;53.29;101613.53;5051581;28;20052;-42
2023/05/13 09:11:03;;;;;;;0.20;0.20;;;;;;;20.18;53.99;101612.69;5051890;28;20569;-43
2023/05/13 09:13:29;;;;;;;0.20;0.20;;;;;;;20.17;53.08;101613.81;5051824;28;20072;-42
2023/05/13 09:15:54;;;;;;;0.20;0.20;;;;;;;20.17;53.24;101622.09;5051644;28;20045;-42
2023/05/13 09:18:20;;;;;;;0.20;0.20;;;;;;;20.17;53.56;101614.63;5050743;28;20299;-42
2023/05/13 09:20:46;;;;;;;0.20;0.20;;;;;;;20.18;53.82;101609.94;5054125;28;20044;-42
2023/05/13 09:23:12;;;;;;;0.20;0.20;;;;;;;20.17;54.14;101611.88;5055322;28;20428;-42
2023/05/13 09:25:38;;;;;;;0.20;0.20;;;;;;;20.18;53.75;101602.47;5055506;28;20659;-42
2023/05/13 09:28:06;;;;;;;0.20;0.20;;;;;;;20.17;52.93;101602.75;5054750;28;20121;-42
2023/05/13 09:30:39;;;;;;;0.20;0.20;;;;;;;20.17;53.72;101603.56;5054027;28;20052;-44
2023/05/13 09:33:10;;;;;;;0.30;0.30;;;;;;;20.17;52.95;101595.28;5054198;28;20048;-43
2023/05/13 09:35:39;;;;;;;0.20;0.20;;;;;;;20.17;53.64;101594.44;5036715;28;20117;-43
2023/05/13 09:38:18;;;;;;;0.20;0.20;;;;;;;20.17;53.79;101586.16;5053612;28;20105;-42
2023/05/13 09:40:52;;;;;;;0.20;0.20;;;;;;;20.18;53.60;101585.88;5019475;28;20256;-42
2023/05/13 09:43:19;;;;;;;0.20;0.20;;;;;;;20.17;53.93;101584.22;5040572;28;20079;-42
2023/05/13 09:45:45;;;;;;;0.20;0.20;;;;;;;20.16;53.01;101578.94;5051090;28;20116;-42
2023/05/13 09:48:13;;;;;;;0.20;0.20;;;;;;;20.17;53.85;101570.38;5049053;28;20064;-43
2023/05/13 09:50:48;;;;;;;0.20;0.20;;;;;;;20.16;53.40;101568.69;5053340;28;20403;-42
2023/05/13 09:53:14;;;;;;;0.20;0.20;;;;;;;20.16;53.61;101567.88;5042022;28;20052;-43
2023/05/13 09:55:47;;;;;;;0.20;0.20;;;;;;;20.17;53.70;101575.91;5049926;28;20079;-44
2023/05/13 09:58:13;;;;;;;0.20;0.20;;;;;;;20.17;53.72;101570.38;5053792;28;20452;-44
2023/05/13 10:00:40;;;;;;;0.20;0.20;;;;;;;20.17;53.73;101570.38;5044012;28;20504;-43
2023/05/13 10:03:07;;;;;;;0.20;0.20;;;;;;;20.17;53.63;101564.03;5053483;28;20087;-43
2023/05/13 10:05:33;;;;;;;0.20;0.20;;;;;;;20.16;53.64;101568.69;5052452;28;20044;-42
2023/05/13 10:08:00;;;;;;;0.20;0.20;;;;;;;20.16;53.71;101565.94;5052795;28;20248;-43
2023/05/13 10:10:29;;;;;;;0.20;0.20;;;;;;;20.16;53.66;101552.09;5053410;28;20555;-43
2023/05/13 10:12:57;;;;;;;0.20;0.20;;;;;;;20.16;53.35;101554.88;5053878;28;20076;-43
2023/05/13 10:15:23;;;;;;;0.10;0.10;;;;;;;20.17;53.75;101551.03;5052861;28;20458;-43
2023/05/13 10:17:49;;;;;;;0.20;0.20;;;;;;;20.16;53.71;101542.97;5052732;28;20079;-43
2023/05/13 10:20:15;;;;;;;0.20;0.20;;;;;;;20.15;53.83;101544.09;5054001;28;20048;-43
2023/05/13 10:22:41;;;;;;;0.20;0.20;;;;;;;20.16;53.01;101542.97;5053593;28;20472;-44
2023/05/13 10:25:07;;;;;;;0.20;0.20;;;;;;;20.16;53.28;101545.75;5052560;28;20075;-42
2023/05/13 10:27:33;;;;;;;0.20;0.20;;;;;;;20.15;52.91;101542.16;5054223;28;20854;-44
2023/05/13 10:30:00;;;;;;;0.20;0.20;;;;;;;20.16;53.51;101538.28;5053301;28;20489;-43
2023/05/13 10:32:29;;;;;;;0.20;0.20;;;;;;;20.17;53.04;101541.91;5036685;28;20079;-43
2023/05/13 10:35:01;;;;;;;0.20;0.20;;;;;;;20.16;53.51;101535.50;5054103;28;20044;-42
2023/05/13 10:38:01;;;;;;;0.20;0.20;;;;;;;20.16;52.99;101529.16;5054083;28;20051;-43
2023/05/13 10:40:58;;;;;;;0.20;0.20;;;;;;;20.15;53.76;101525.56;5049581;28;20492;-42
2023/05/13 10:43:27;;;;;;;0.20;0.20;;;;;;;20.15;53.46;101527.50;5039998;28;20102;-44
2023/05/13 10:46:00;;;;;;;0.20;0.20;;;;;;;20.16;53.39;101527.22;5018837;28;20075;-43
2023/05/13 10:48:25;;;;;;;0.20;0.20;;;;;;;20.16;53.46;101529.16;5031316;28;20251;-43
2023/05/13 10:50:55;;;;;;;0.15;0.15;;;;;;;20.16;53.71;101518.91;5028729;28;20246;-44
2023/05/13 10:53:26;;;;;;;0.20;0.20;;;;;;;20.16;53.58;101526.38;5053404;28;20083;-43
2023/05/13 10:55:54;;;;;;;0.20;0.20;;;;;;;20.18;53.63;101526.97;5051403;28;20045;-42
2023/05/13 10:58:23;;;;;;;0.20;0.20;;;;;;;20.17;53.74;101517.00;5034302;28;20048;-42
2023/05/13 11:00:49;;;;;;;0.20;0.20;;;;;;;20.16;53.09;101529.97;5052487;28;20056;-43
2023/05/13 11:06:16;;;;;;;0.20;0.20;;;;;;;20.16;53.45;101509.78;5171474;27;20201;-40
2023/05/13 11:08:44;;;;;;;0.30;0.30;;;;;;;20.15;53.59;101513.66;5150657;27;20479;-39
2023/05/13 11:11:29;;;;;;;0.20;0.20;;;;;;;20.15;53.58;101503.44;5136305;27;20045;-40
2023/05/13 11:14:06;;;;;;;0.30;0.30;;;;;;;20.16;53.12;101507.84;5125940;27;20050;-41
2023/05/13 11:16:34;;;;;;;0.20;0.20;;;;;;;20.16;53.33;101499.56;5132817;27;20095;-40
2023/05/13 11:19:02;;;;;;;0.20;0.20;;;;;;;20.17;53.49;101503.19;5132566;27;20141;-39
2023/05/13 11:21:30;;;;;;;0.20;0.20;;;;;;;20.16;53.47;101495.97;5132406;27;20057;-42
2023/05/13 11:23:59;;;;;;;0.40;0.40;;;;;;;20.15;53.41;101495.16;5115250;27;20479;-43
2023/05/13 11:26:25;;;;;;;0.20;0.20;;;;;;;20.16;53.57;101504.28;5115521;27;20046;-39